Time;durP1;ratioP1;P1;durP2;ratioP2;P2;SDS_P1;SDS_P2;PMS_P1;PMS_P2;Temp;Humidity;BMP_temperature;BMP_pressure;BME280_temperature;BME280_humidity;BME280_pressure;Samples;Min_cycle;Max_cycle;Signal;HPM_P1;HPM_P2
2023/07/27 00:01:05;;;;;;;12.80;9.40;;;;;;;18.44;82.94;98630.50;5075354;28;20052;-57
2023/07/27 00:03:31;;;;;;;12.15;9.27;;;;;;;18.24;83.26;98599.81;5075396;28;20056;-58
2023/07/27 00:05:56;;;;;;;11.45;9.38;;;;;;;18.39;83.22;98621.31;5074706;28;20035;-60
2023/07/27 00:08:22;;;;;;;14.95;9.75;;;;;;;18.31;83.24;98620.47;5075691;28;20029;-67
2023/07/27 00:10:48;;;;;;;11.43;9.40;;;;;;;18.25;83.55;98617.75;5075506;28;20048;-60
2023/07/27 00:13:13;;;;;;;10.82;9.48;;;;;;;18.20;83.59;98613.78;5075482;28;20432;-61
2023/07/27 00:15:39;;;;;;;11.20;9.45;;;;;;;18.17;83.78;98613.34;5075041;28;20055;-61
2023/07/27 00:18:04;;;;;;;14.77;10.13;;;;;;;18.06;84.21;98604.75;5075321;28;20048;-59
2023/07/27 00:20:30;;;;;;;12.73;10.25;;;;;;;18.02;84.20;98602.66;5075239;28;20029;-59
2023/07/27 00:22:55;;;;;;;12.27;10.10;;;;;;;18.13;84.39;98623.75;5075107;28;20037;-59
2023/07/27 00:25:21;;;;;;;11.75;10.13;;;;;;;18.09;84.30;98630.63;5074423;28;20029;-59
2023/07/27 00:27:46;;;;;;;12.98;10.63;;;;;;;17.81;84.36;98601.69;5075241;28;20039;-60
2023/07/27 00:30:12;;;;;;;13.52;10.40;;;;;;;17.99;84.66;98644.50;5074801;28;20094;-59
2023/07/27 00:32:38;;;;;;;12.40;10.65;;;;;;;17.85;84.71;98632.78;5074485;28;20044;-59
2023/07/27 00:35:05;;;;;;;13.93;11.18;;;;;;;18.06;85.13;98669.75;5075172;28;20039;-55
2023/07/27 00:37:30;;;;;;;12.52;10.85;;;;;;;18.13;84.88;98666.25;5074803;28;20502;-57
2023/07/27 00:39:56;;;;;;;11.68;10.48;;;;;;;18.16;85.04;98666.69;5074496;28;20032;-57
2023/07/27 00:42:21;;;;;;;11.80;9.95;;;;;;;18.14;84.86;98652.50;5075145;28;20051;-59
2023/07/27 00:44:47;;;;;;;11.88;10.50;;;;;;;18.24;84.20;98668.38;5074899;28;20448;-59
2023/07/27 00:47:12;;;;;;;13.38;10.63;;;;;;;18.29;84.34;98670.47;5073923;28;20025;-59
2023/07/27 00:49:38;;;;;;;11.98;10.38;;;;;;;18.36;84.00;98684.91;5074758;28;20550;-59
2023/07/27 00:52:07;;;;;;;12.30;9.85;;;;;;;18.31;83.43;98669.25;5074717;28;20368;-59
2023/07/27 00:54:36;;;;;;;12.80;9.48;;;;;;;18.40;84.08;98671.75;5074758;28;20031;-57
2023/07/27 00:57:01;;;;;;;13.27;10.63;;;;;;;18.31;83.63;98673.81;5074017;28;20032;-60
2023/07/27 00:59:28;;;;;;;13.50;10.68;;;;;;;18.30;83.77;98685.69;5074321;28;20032;-57
2023/07/27 01:01:54;;;;;;;13.13;11.50;;;;;;;18.36;83.44;98712.00;5074376;28;20032;-56
2023/07/27 01:04:20;;;;;;;13.02;11.10;;;;;;;18.35;83.47;98719.28;5057119;28;20036;-57
2023/07/27 01:06:46;;;;;;;12.57;11.00;;;;;;;18.33;83.33;98715.13;5073987;28;20364;-59
2023/07/27 01:09:12;;;;;;;12.15;10.95;;;;;;;18.20;83.15;98684.19;5074150;28;20112;-57
2023/07/27 01:11:55;;;;;;;12.05;10.65;;;;;;;18.58;83.07;98730.84;5074318;28;20036;-60
2023/07/27 01:14:44;;;;;;;14.30;10.45;;;;;;;18.54;82.51;98730.41;5074298;28;20538;-57
2023/07/27 01:17:32;;;;;;;11.85;10.52;;;;;;;18.64;82.24;98721.88;5074091;28;20021;-63
2023/07/27 01:20:04;;;;;;;12.35;11.05;;;;;;;18.51;82.29;98709.94;5073705;28;20044;-58
2023/07/27 01:22:31;;;;;;;14.88;11.15;;;;;;;18.46;81.85;98707.03;5054050;28;20120;-60
2023/07/27 01:25:03;;;;;;;14.85;10.82;;;;;;;18.46;82.11;98704.31;5053199;28;20036;-63
2023/07/27 01:27:29;;;;;;;14.82;10.85;;;;;;;18.38;82.31;98699.06;5053988;28;20036;-60
2023/07/27 01:30:28;;;;;;;12.10;10.20;;;;;;;18.51;82.64;98711.84;5064588;28;20039;-60
2023/07/27 01:33:05;;;;;;;11.63;10.25;;;;;;;18.48;82.34;98704.94;5072651;28;20036;-60
2023/07/27 01:35:38;;;;;;;12.77;11.23;;;;;;;18.43;82.13;98704.72;5073861;28;20029;-60
2023/07/27 01:38:05;;;;;;;17.13;11.25;;;;;;;18.41;82.61;98706.81;5073687;28;20090;-59
2023/07/27 01:40:34;;;;;;;14.10;10.02;;;;;;;18.42;82.35;98703.06;5073595;28;20025;-57
2023/07/27 01:43:01;;;;;;;14.93;10.73;;;;;;;18.46;82.26;98723.28;5073634;28;20040;-57
2023/07/27 01:45:26;;;;;;;12.80;11.07;;;;;;;18.49;82.14;98709.31;5073475;28;20444;-56
2023/07/27 01:47:53;;;;;;;13.98;10.85;;;;;;;18.54;81.89;98710.56;5072474;28;20032;-58
2023/07/27 01:50:19;;;;;;;12.60;10.93;;;;;;;18.50;81.78;98681.19;5071679;28;20044;-59
2023/07/27 01:52:46;;;;;;;14.65;10.77;;;;;;;18.57;81.44;98683.91;5073087;28;20025;-58
2023/07/27 01:55:15;;;;;;;12.45;10.15;;;;;;;18.66;81.15;98706.25;5073444;28;20119;-58
2023/07/27 01:57:43;;;;;;;11.98;10.77;;;;;;;18.71;81.17;98701.03;5073359;28;20032;-59
2023/07/27 02:00:11;;;;;;;11.93;10.65;;;;;;;18.74;80.71;98688.97;5072573;28;20024;-58
2023/07/27 02:02:37;;;;;;;11.45;10.25;;;;;;;18.83;80.23;98681.47;5073074;28;20037;-58
2023/07/27 02:05:03;;;;;;;13.35;9.93;;;;;;;18.89;79.99;98686.06;5073193;28;20043;-57
2023/07/27 02:07:34;;;;;;;12.45;10.18;;;;;;;19.01;79.66;98695.28;5073031;28;20043;-66
2023/07/27 02:10:00;;;;;;;12.60;10.20;;;;;;;18.97;79.46;98694.00;5072995;28;20488;-61
2023/07/27 02:12:36;;;;;;;12.60;10.40;;;;;;;19.11;79.01;98696.78;5073170;28;20036;-58
2023/07/27 02:15:07;;;;;;;15.43;10.90;;;;;;;19.12;78.50;98695.72;5073024;28;20044;-57
2023/07/27 02:17:45;;;;;;;10.93;9.77;;;;;;;19.21;78.63;98705.31;5073091;28;20032;-60
2023/07/27 02:20:16;;;;;;;12.43;9.75;;;;;;;19.22;78.63;98697.00;5072626;28;20478;-58
2023/07/27 02:22:43;;;;;;;11.00;9.77;;;;;;;19.28;78.07;98686.34;5073281;28;20035;-61
2023/07/27 02:25:09;;;;;;;13.15;10.35;;;;;;;19.34;78.05;98682.78;5072304;28;20044;-56
2023/07/27 02:27:34;;;;;;;11.10;10.00;;;;;;;19.42;77.35;98688.03;5073002;28;20093;-59
2023/07/27 02:30:01;;;;;;;10.80;9.50;;;;;;;19.44;76.99;98691.34;5073154;28;20032;-69
2023/07/27 02:32:27;;;;;;;12.35;9.95;;;;;;;19.46;76.80;98696.56;5073094;28;20029;-59
2023/07/27 02:34:52;;;;;;;12.68;10.13;;;;;;;19.50;76.55;98708.66;5072855;28;20357;-57
2023/07/27 02:37:17;;;;;;;11.25;10.02;;;;;;;19.46;76.89;98708.25;5072913;28;20056;-59
2023/07/27 02:39:43;;;;;;;12.20;9.57;;;;;;;19.48;76.37;98716.19;5072389;28;20032;-61
2023/07/27 02:42:08;;;;;;;12.38;9.70;;;;;;;19.49;76.43;98723.28;5072940;28;20039;-58
2023/07/27 02:44:34;;;;;;;10.52;9.40;;;;;;;19.54;76.52;98731.66;5072775;28;20337;-58
2023/07/27 02:46:59;;;;;;;10.55;9.25;;;;;;;19.61;76.40;98737.06;5072938;28;20326;-59
2023/07/27 02:49:25;;;;;;;12.10;9.30;;;;;;;19.69;75.80;98738.72;5072242;28;20032;-60
2023/07/27 02:51:50;;;;;;;11.50;9.18;;;;;;;19.61;75.78;98715.34;5072673;28;20904;-59
2023/07/27 02:54:16;;;;;;;13.35;10.25;;;;;;;19.75;75.52;98733.28;5072511;28;20059;-58
2023/07/27 02:56:42;;;;;;;11.73;9.13;;;;;;;19.75;75.40;98729.72;5071296;28;20093;-59
2023/07/27 02:59:07;;;;;;;10.70;9.60;;;;;;;19.72;74.85;98708.44;5072603;28;20055;-58
2023/07/27 03:01:33;;;;;;;10.93;9.55;;;;;;;19.63;75.58;98686.94;5074134;28;20463;-63
2023/07/27 03:03:58;;;;;;;11.48;9.80;;;;;;;19.31;75.75;98629.78;5076507;28;20085;-59
2023/07/27 03:06:24;;;;;;;10.90;9.50;;;;;;;19.41;76.10;98661.06;5076418;28;20086;-59
2023/07/27 03:08:50;;;;;;;12.38;10.07;;;;;;;19.25;76.69;98649.59;5076537;28;20040;-59
2023/07/27 03:11:15;;;;;;;12.80;10.82;;;;;;;19.30;76.62;98638.97;5076343;28;20427;-58
2023/07/27 03:13:41;;;;;;;11.35;10.18;;;;;;;19.31;76.65;98646.06;5075416;28;20048;-59
2023/07/27 03:16:06;;;;;;;11.82;10.57;;;;;;;19.38;76.74;98634.34;5076671;28;20063;-58
2023/07/27 03:18:32;;;;;;;11.35;10.02;;;;;;;19.38;76.67;98616.19;5076561;28;20028;-59
2023/07/27 03:21:02;;;;;;;11.40;10.27;;;;;;;19.45;76.54;98600.75;5076289;28;20037;-58
2023/07/27 03:23:27;;;;;;;11.25;9.98;;;;;;;19.58;76.22;98608.00;5076331;28;20055;-57
2023/07/27 03:25:53;;;;;;;11.60;10.30;;;;;;;19.73;74.95;98623.19;5076389;28;20761;-56
2023/07/27 03:28:18;;;;;;;11.68;10.07;;;;;;;19.87;74.65;98638.44;5076225;28;20111;-58
2023/07/27 03:30:44;;;;;;;10.68;9.43;;;;;;;20.05;74.07;98662.22;5076168;28;20113;-61
2023/07/27 03:33:09;;;;;;;15.80;10.10;;;;;;;20.21;73.65;98684.53;5076065;28;20131;-59
2023/07/27 03:35:35;;;;;;;12.88;9.60;;;;;;;20.39;72.76;98711.00;5075690;28;20467;-61
2023/07/27 03:38:02;;;;;;;12.20;9.60;;;;;;;20.57;71.98;98737.47;5074905;28;20040;-60
2023/07/27 03:40:28;;;;;;;9.82;8.82;;;;;;;20.74;70.83;98748.72;5075143;28;20093;-59
2023/07/27 03:42:53;;;;;;;9.90;8.90;;;;;;;20.84;70.54;98761.84;5076093;28;20058;-58
2023/07/27 03:45:19;;;;;;;10.27;9.13;;;;;;;20.79;70.10;98767.97;5075819;28;20032;-60
2023/07/27 03:47:45;;;;;;;10.82;9.18;;;;;;;20.77;70.54;98780.91;5075646;28;20035;-59
2023/07/27 03:50:12;;;;;;;13.02;8.73;;;;;;;20.68;70.71;98784.09;5075878;28;20028;-59
2023/07/27 03:52:38;;;;;;;12.13;9.15;;;;;;;20.57;70.83;98785.59;5075744;28;20043;-58
2023/07/27 03:55:04;;;;;;;10.48;9.43;;;;;;;20.51;71.23;98796.28;5075119;28;20407;-58
2023/07/27 03:57:30;;;;;;;11.60;9.10;;;;;;;20.47;71.42;98792.31;5075644;28;20060;-56
2023/07/27 03:59:57;;;;;;;11.88;8.50;;;;;;;20.53;71.57;98782.47;5075577;28;20060;-58
2023/07/27 04:02:24;;;;;;;10.13;9.02;;;;;;;20.68;71.20;98790.34;5075682;28;20028;-60
2023/07/27 04:04:49;;;;;;;10.63;8.25;;;;;;;20.99;70.24;98796.97;5075490;28;20066;-60
2023/07/27 04:07:15;;;;;;;9.90;8.90;;;;;;;21.33;68.33;98813.06;5075302;28;20063;-57
2023/07/27 04:09:43;;;;;;;9.35;8.45;;;;;;;21.57;66.88;98824.22;5075696;28;20076;-59
2023/07/27 04:12:09;;;;;;;10.23;9.02;;;;;;;21.66;66.46;98831.09;5075284;28;20360;-57
2023/07/27 04:14:34;;;;;;;11.10;8.88;;;;;;;21.50;66.40;98788.88;5074075;28;20039;-58
2023/07/27 04:17:00;;;;;;;13.00;8.50;;;;;;;21.69;66.82;98824.38;5075344;28;20024;-61
2023/07/27 04:19:25;;;;;;;10.63;8.93;;;;;;;21.50;66.96;98811.50;5075415;28;20029;-58
2023/07/27 04:21:51;;;;;;;11.43;9.57;;;;;;;21.55;67.04;98846.25;5075167;28;20024;-58
2023/07/27 04:24:16;;;;;;;13.80;9.23;;;;;;;21.44;67.63;98852.38;5075564;28;20035;-57
2023/07/27 04:26:42;;;;;;;15.48;9.30;;;;;;;21.34;67.83;98869.19;5074747;28;20078;-58
2023/07/27 04:29:07;;;;;;;12.07;9.18;;;;;;;21.17;68.07;98863.41;5073730;28;20051;-63
2023/07/27 04:31:33;;;;;;;12.52;8.85;;;;;;;21.07;68.55;98878.34;5075271;28;20027;-58
2023/07/27 04:33:58;;;;;;;9.88;8.65;;;;;;;20.95;68.56;98871.88;5075187;28;20032;-60
2023/07/27 04:36:24;;;;;;;9.35;8.45;;;;;;;20.96;68.43;98884.44;5074048;28;20357;-60
2023/07/27 04:38:49;;;;;;;11.00;7.78;;;;;;;21.01;68.63;98889.25;5073440;28;20430;-59
2023/07/27 04:41:15;;;;;;;9.27;8.05;;;;;;;21.04;68.45;98903.25;5074909;28;20462;-58
2023/07/27 04:43:40;;;;;;;12.70;8.52;;;;;;;21.07;68.04;98896.53;5074530;28;20035;-61
2023/07/27 04:46:06;;;;;;;9.63;8.48;;;;;;;21.08;68.29;98893.59;5075006;28;20031;-60
2023/07/27 04:48:31;;;;;;;14.10;9.95;;;;;;;21.07;68.47;98864.72;5074301;28;20361;-61
2023/07/27 04:50:57;;;;;;;11.48;9.57;;;;;;;21.11;68.32;98832.47;5074528;28;20033;-61
2023/07/27 04:53:22;;;;;;;10.15;8.63;;;;;;;21.20;67.76;98824.88;5074511;28;20024;-61
2023/07/27 04:55:48;;;;;;;12.38;9.25;;;;;;;21.55;66.74;98842.66;5074727;28;20470;-58
2023/07/27 04:58:13;;;;;;;11.20;8.75;;;;;;;22.59;64.08;98825.03;5074296;28;20170;-60
2023/07/27 05:00:39;;;;;;;11.25;8.18;;;;;;;24.27;58.72;98803.47;5074395;28;20032;-68
2023/07/27 05:03:04;;;;;;;9.32;8.00;;;;;;;24.97;55.55;98814.53;5074271;28;20036;-59
2023/07/27 05:05:30;;;;;;;11.18;8.45;;;;;;;25.27;54.70;98823.59;5074589;28;20567;-62
2023/07/27 05:07:56;;;;;;;10.77;8.90;;;;;;;25.73;53.30;98845.50;5073870;28;20036;-57
2023/07/27 05:10:23;;;;;;;11.30;9.05;;;;;;;25.94;52.48;98860.41;5074461;28;20044;-60
2023/07/27 05:12:49;;;;;;;11.05;9.15;;;;;;;25.81;52.57;98856.09;5074337;28;20040;-60
2023/07/27 05:15:15;;;;;;;11.23;9.82;;;;;;;25.55;53.20;98860.28;5074265;28;20546;-58
2023/07/27 05:17:40;;;;;;;12.07;9.50;;;;;;;25.48;53.34;98865.91;5073626;28;20108;-65
2023/07/27 05:20:06;;;;;;;11.23;10.07;;;;;;;25.58;52.88;98868.00;5074169;28;20055;-61
2023/07/27 05:22:32;;;;;;;10.90;9.88;;;;;;;25.60;52.70;98858.47;5073309;28;20484;-60
2023/07/27 05:24:57;;;;;;;10.88;9.77;;;;;;;25.63;52.84;98877.16;5071610;28;20032;-57
2023/07/27 05:27:23;;;;;;;10.52;9.27;;;;;;;25.46;52.46;98848.84;5073189;28;20024;-61
2023/07/27 05:29:48;;;;;;;10.77;9.45;;;;;;;25.48;52.83;98874.97;5072235;28;20115;-60
2023/07/27 05:32:14;;;;;;;12.05;10.35;;;;;;;25.40;53.22;98875.31;5073386;28;20052;-59
2023/07/27 05:34:39;;;;;;;13.85;9.68;;;;;;;25.25;53.92;98864.91;5073801;28;20419;-60
2023/07/27 05:37:05;;;;;;;13.13;10.57;;;;;;;24.97;54.07;98863.81;5072060;28;20035;-58
2023/07/27 05:39:30;;;;;;;11.80;9.73;;;;;;;24.69;55.10;98846.22;5073346;28;20032;-58
2023/07/27 05:41:56;;;;;;;10.35;9.00;;;;;;;24.57;54.63;98853.63;5073457;28;20040;-60
2023/07/27 05:44:21;;;;;;;11.95;8.00;;;;;;;24.45;54.59;98853.63;5072804;28;20030;-56
2023/07/27 05:46:47;;;;;;;9.40;8.32;;;;;;;24.48;54.75;98853.19;5073329;28;20033;-58
2023/07/27 05:49:13;;;;;;;11.77;9.25;;;;;;;24.56;54.58;98830.91;5072870;28;20028;-61
2023/07/27 05:51:38;;;;;;;13.23;9.68;;;;;;;24.86;53.72;98846.34;5073586;28;20075;-60
2023/07/27 05:54:03;;;;;;;12.63;8.75;;;;;;;25.21;53.13;98847.28;5073250;28;20043;-60
2023/07/27 05:56:29;;;;;;;11.13;8.73;;;;;;;25.60;52.35;98857.63;5073232;28;20375;-59
2023/07/27 05:58:55;;;;;;;13.30;9.75;;;;;;;25.90;50.70;98854.59;5072587;28;20441;-60
2023/07/27 06:01:21;;;;;;;12.02;8.40;;;;;;;26.29;50.18;98866.75;5073390;28;20115;-60
2023/07/27 06:03:46;;;;;;;11.60;8.23;;;;;;;26.78;48.27;98863.28;5073365;28;20123;-61
2023/07/27 06:06:12;;;;;;;11.90;8.02;;;;;;;28.38;44.97;98864.09;5072155;28;20024;-61
2023/07/27 06:08:37;;;;;;;11.52;7.28;;;;;;;32.18;37.25;98864.28;5072868;28;20059;-61
2023/07/27 06:11:06;;;;;;;11.60;6.55;;;;;;;36.19;30.37;98862.72;5073067;28;20131;-59
2023/07/27 06:13:32;;;;;;;8.43;6.10;;;;;;;39.18;25.36;98854.28;5072721;28;20816;-60
2023/07/27 06:15:58;;;;;;;7.00;5.68;;;;;;;41.21;22.73;98852.16;5071971;28;20040;-59
2023/07/27 06:18:23;;;;;;;8.20;6.70;;;;;;;42.98;20.72;98835.63;5072971;28;20028;-61
2023/07/27 06:20:49;;;;;;;7.13;6.43;;;;;;;44.79;18.73;98841.97;5072899;28;20024;-58
2023/07/27 06:23:14;;;;;;;5.50;4.97;;;;;;;46.06;16.52;98835.09;5072889;28;20372;-60
2023/07/27 06:25:44;;;;;;;6.68;5.45;;;;;;;44.75;18.20;98832.63;5072185;28;20158;-60
2023/07/27 06:28:10;;;;;;;6.80;6.25;;;;;;;42.21;20.05;98809.63;5072380;28;20056;-60
2023/07/27 06:30:37;;;;;;;6.18;5.57;;;;;;;42.41;19.84;98833.81;5070519;28;20032;-62
2023/07/27 06:33:03;;;;;;;10.23;6.63;;;;;;;43.77;18.69;98830.88;5070606;28;20453;-60
2023/07/27 06:35:28;;;;;;;6.20;4.93;;;;;;;45.56;16.50;98841.00;5071091;28;20064;-64
2023/07/27 06:37:54;;;;;;;7.57;5.78;;;;;;;47.15;14.84;98833.16;5069935;28;20032;-64
2023/07/27 06:40:20;;;;;;;9.98;5.30;;;;;;;48.40;13.76;98842.47;5052826;28;20108;-65
2023/07/27 06:42:46;;;;;;;5.55;5.05;;;;;;;47.66;13.92;98841.91;5063501;28;20070;-63
2023/07/27 06:45:11;;;;;;;10.07;4.65;;;;;;;46.22;14.70;98817.91;5071496;28;20024;-63
2023/07/27 06:47:37;;;;;;;5.05;4.30;;;;;;;45.65;14.93;98837.88;5053684;28;20033;-61
2023/07/27 06:50:03;;;;;;;5.07;4.35;;;;;;;44.72;15.95;98834.19;5069321;28;20028;-63
2023/07/27 06:52:29;;;;;;;4.97;4.47;;;;;;;44.40;16.46;98833.63;5070626;28;20127;-62
2023/07/27 06:54:54;;;;;;;4.10;3.70;;;;;;;43.45;16.28;98825.41;5057138;28;20033;-62
2023/07/27 06:57:20;;;;;;;5.13;4.05;;;;;;;42.11;17.55;98834.28;5051798;28;20029;-63
2023/07/27 06:59:46;;;;;;;5.57;4.28;;;;;;;40.18;19.54;98826.75;5050866;28;20029;-63
2023/07/27 07:02:11;;;;;;;5.03;4.43;;;;;;;38.63;21.35;98828.13;5055407;28;20052;-61
2023/07/27 07:04:37;;;;;;;6.47;4.45;;;;;;;37.54;22.25;98834.59;5071664;28;20365;-59
2023/07/27 07:07:03;;;;;;;8.32;5.10;;;;;;;37.51;22.61;98829.69;5053754;28;20058;-61
2023/07/27 07:09:32;;;;;;;6.00;4.75;;;;;;;37.82;22.35;98805.50;5071249;28;20381;-62
2023/07/27 07:11:59;;;;;;;5.20;4.70;;;;;;;38.40;21.51;98830.31;5070635;28;20095;-61
2023/07/27 07:14:25;;;;;;;8.18;4.95;;;;;;;39.71;20.20;98825.06;5071527;28;20029;-61
2023/07/27 07:16:50;;;;;;;5.63;5.07;;;;;;;41.65;18.39;98811.31;5069938;28;20694;-60
2023/07/27 07:19:16;;;;;;;8.57;4.97;;;;;;;44.43;16.34;98816.78;5071274;28;20108;-63
2023/07/27 07:21:41;;;;;;;5.93;5.03;;;;;;;46.60;14.00;98809.34;5067594;28;20034;-61
2023/07/27 07:24:07;;;;;;;10.63;5.07;;;;;;;48.37;12.55;98825.44;5069603;28;20066;-60
2023/07/27 07:26:33;;;;;;;7.22;5.43;;;;;;;47.22;12.92;98819.00;5071315;28;20032;-60
2023/07/27 07:28:58;;;;;;;5.00;4.45;;;;;;;46.94;12.69;98826.16;5069379;28;20041;-59
2023/07/27 07:31:24;;;;;;;5.93;4.60;;;;;;;45.75;14.55;98825.91;5068475;28;20093;-62
2023/07/27 07:33:50;;;;;;;8.70;5.10;;;;;;;43.27;16.95;98789.19;5070739;28;20128;-61
2023/07/27 07:36:15;;;;;;;10.50;5.43;;;;;;;41.04;18.60;98823.19;5071204;28;20031;-60
2023/07/27 07:38:41;;;;;;;8.10;5.32;;;;;;;41.64;18.36;98821.75;5071293;28;20032;-60
2023/07/27 07:41:06;;;;;;;11.13;5.55;;;;;;;43.75;16.32;98827.63;5070754;28;20887;-62
2023/07/27 07:43:32;;;;;;;8.18;5.13;;;;;;;43.11;16.86;98822.22;5070031;28;20075;-61
2023/07/27 07:45:58;;;;;;;6.28;5.00;;;;;;;41.45;18.34;98814.78;5071388;28;20739;-61
2023/07/27 07:48:23;;;;;;;6.60;5.40;;;;;;;40.95;19.06;98810.44;5072149;28;20474;-63
2023/07/27 07:50:51;;;;;;;8.02;5.30;;;;;;;41.43;18.93;98807.88;5075268;28;20032;-62
2023/07/27 07:53:17;;;;;;;6.82;5.15;;;;;;;42.73;17.51;98814.16;5075593;28;20024;-62
2023/07/27 07:55:42;;;;;;;7.68;4.93;;;;;;;44.49;15.88;98811.59;5075473;28;20028;-61
2023/07/27 07:58:08;;;;;;;6.88;4.63;;;;;;;46.40;14.83;98809.56;5074616;28;20119;-61
2023/07/27 08:00:33;;;;;;;7.55;4.72;;;;;;;47.86;13.06;98809.13;5075130;28;20093;-61
2023/07/27 08:02:59;;;;;;;8.13;4.68;;;;;;;48.28;12.38;98814.47;5074188;28;20024;-59
2023/07/27 08:05:24;;;;;;;4.75;4.25;;;;;;;48.14;12.32;98815.28;5074952;28;20040;-60
2023/07/27 08:07:50;;;;;;;9.13;5.05;;;;;;;47.81;12.01;98781.19;5075204;28;20029;-60
2023/07/27 08:10:16;;;;;;;7.55;4.72;;;;;;;46.41;13.38;98819.69;5075271;28;20060;-59
2023/07/27 08:12:42;;;;;;;6.80;4.70;;;;;;;45.66;14.08;98822.56;5071905;28;20051;-61
2023/07/27 08:15:07;;;;;;;6.45;4.60;;;;;;;45.06;14.49;98825.03;5073806;28;20033;-59
2023/07/27 08:17:34;;;;;;;5.00;4.60;;;;;;;43.05;15.83;98812.44;5072821;28;20025;-59
2023/07/27 08:20:00;;;;;;;5.53;4.82;;;;;;;42.79;16.48;98819.50;5074547;28;20043;-58
2023/07/27 08:22:25;;;;;;;7.07;4.75;;;;;;;43.12;16.27;98816.25;5072442;28;20028;-54
2023/07/27 08:24:51;;;;;;;6.18;5.20;;;;;;;42.37;16.87;98818.88;5074693;28;20460;-58
2023/07/27 08:27:18;;;;;;;14.27;8.70;;;;;;;40.88;18.26;98813.84;5073350;28;20035;-58
2023/07/27 08:29:43;;;;;;;7.88;5.25;;;;;;;39.47;18.45;98832.22;5074402;28;20077;-61
2023/07/27 08:32:09;;;;;;;11.23;6.50;;;;;;;38.12;20.32;98825.16;5072855;28;20040;-60
2023/07/27 08:34:34;;;;;;;6.55;5.18;;;;;;;36.56;21.92;98790.13;5056047;28;20036;-62
2023/07/27 08:37:01;;;;;;;5.82;4.95;;;;;;;35.48;23.34;98828.75;5073750;28;20024;-60
2023/07/27 08:39:26;;;;;;;8.50;5.22;;;;;;;34.53;25.43;98826.66;5074042;28;20020;-61
2023/07/27 08:41:52;;;;;;;5.80;5.18;;;;;;;33.87;26.34;98822.78;5073669;28;20032;-61
2023/07/27 08:44:18;;;;;;;9.23;4.93;;;;;;;33.19;26.99;98811.88;5073856;28;20456;-61
2023/07/27 08:46:45;;;;;;;7.00;4.78;;;;;;;32.97;27.46;98836.59;5060915;28;20095;-60
2023/07/27 08:49:14;;;;;;;7.47;4.95;;;;;;;32.62;26.72;98836.72;5073481;28;20862;-63
2023/07/27 08:51:45;;;;;;;6.75;4.88;;;;;;;32.05;27.36;98845.56;5073113;28;20028;-62
2023/07/27 08:54:11;;;;;;;7.28;4.88;;;;;;;31.22;28.65;98829.56;5073519;28;20036;-63
2023/07/27 08:56:37;;;;;;;11.68;4.85;;;;;;;30.61;29.84;98835.06;5073333;28;20017;-55
2023/07/27 08:59:03;;;;;;;9.55;4.90;;;;;;;30.39;31.10;98838.16;5072711;28;20043;-59
2023/07/27 09:01:28;;;;;;;6.85;5.07;;;;;;;30.30;30.72;98826.00;5072941;28;20101;-60
2023/07/27 09:03:54;;;;;;;13.95;6.00;;;;;;;30.17;31.36;98844.81;5072762;28;20040;-54
2023/07/27 09:06:44;;;;;;;14.95;6.72;;;;;;;30.44;31.22;98854.69;5073508;28;20103;-56
2023/07/27 09:09:17;;;;;;;9.23;5.60;;;;;;;30.43;31.62;98857.72;5066480;28;20072;-58
2023/07/27 09:11:44;;;;;;;9.10;5.90;;;;;;;30.40;31.42;98820.47;5072997;28;20071;-56
2023/07/27 09:14:09;;;;;;;9.60;5.28;;;;;;;30.99;31.98;98865.03;5073174;28;20036;-58
2023/07/27 09:16:36;;;;;;;13.82;7.72;;;;;;;31.15;30.37;98851.16;5066747;28;20028;-58
2023/07/27 09:19:03;;;;;;;11.13;6.68;;;;;;;31.17;29.56;98835.09;5071087;28;20093;-59
2023/07/27 09:21:38;;;;;;;12.15;6.45;;;;;;;31.45;29.73;98863.16;5073146;28;20044;-53
2023/07/27 09:24:04;;;;;;;10.50;5.63;;;;;;;31.17;29.34;98846.16;5073569;28;20024;-58
2023/07/27 09:26:30;;;;;;;6.75;5.18;;;;;;;31.25;29.03;98845.56;5073199;28;20125;-59
2023/07/27 09:28:55;;;;;;;4.60;4.10;;;;;;;31.36;29.11;98862.94;5072429;28;20036;-59
2023/07/27 09:31:21;;;;;;;8.45;4.60;;;;;;;31.25;28.83;98877.94;5073147;28;20032;-58
2023/07/27 09:33:46;;;;;;;15.88;8.52;;;;;;;31.10;29.56;98873.25;5072850;28;20030;-61
2023/07/27 09:36:12;;;;;;;8.95;5.50;;;;;;;30.99;29.21;98862.25;5072812;28;20774;-59
2023/07/27 09:38:38;;;;;;;6.80;5.00;;;;;;;31.10;28.81;98873.25;5072235;28;20089;-61
2023/07/27 09:41:08;;;;;;;5.22;4.32;;;;;;;31.16;29.13;98872.97;5072446;28;20060;-59
2023/07/27 09:43:38;;;;;;;6.45;4.20;;;;;;;31.14;29.34;98860.56;5073298;28;20028;-57
2023/07/27 09:46:04;;;;;;;6.95;4.15;;;;;;;31.19;28.57;98871.56;5072911;28;20024;-59
2023/07/27 09:48:31;;;;;;;8.38;5.85;;;;;;;31.02;29.16;98856.16;5071775;28;20038;-59
2023/07/27 09:50:59;;;;;;;16.77;9.05;;;;;;;30.87;29.84;98870.06;5072455;28;20128;-61
2023/07/27 09:53:29;;;;;;;9.90;5.10;;;;;;;30.54;29.94;98859.38;5068929;28;20043;-62
2023/07/27 09:55:56;;;;;;;8.80;5.07;;;;;;;30.14;30.35;98819.69;5071569;28;20055;-63
2023/07/27 09:58:22;;;;;;;6.88;4.80;;;;;;;30.31;30.47;98839.53;5071122;28;20040;-60
2023/07/27 10:00:48;;;;;;;7.03;4.95;;;;;;;30.23;30.88;98834.56;5070887;28;20120;-60
2023/07/27 10:03:14;;;;;;;8.65;5.22;;;;;;;30.20;30.83;98844.25;5071947;28;20128;-60
2023/07/27 10:05:41;;;;;;;6.18;4.20;;;;;;;30.19;30.85;98842.59;5071539;28;20056;-61
2023/07/27 10:08:07;;;;;;;9.90;5.53;;;;;;;30.22;30.70;98835.66;5071280;28;20496;-62
2023/07/27 10:10:33;;;;;;;7.63;4.10;;;;;;;30.19;31.13;98830.72;5070144;28;20131;-61
2023/07/27 10:13:10;;;;;;;6.95;4.13;;;;;;;30.25;30.97;98837.06;5070873;28;20119;-59
2023/07/27 10:15:41;;;;;;;6.47;4.07;;;;;;;30.26;29.77;98825.72;5069738;28;20054;-59
2023/07/27 10:18:07;;;;;;;5.85;4.32;;;;;;;30.12;30.00;98831.00;5069673;28;20024;-60
2023/07/27 10:20:34;;;;;;;8.18;4.32;;;;;;;30.08;30.29;98829.91;5069524;28;20033;-62
2023/07/27 10:23:17;;;;;;;7.15;3.92;;;;;;;30.12;30.36;98791.53;5070061;28;20033;-61
2023/07/27 10:25:55;;;;;;;5.78;3.97;;;;;;;30.23;29.98;98782.13;5069680;28;20036;-61
2023/07/27 10:28:38;;;;;;;5.80;4.03;;;;;;;30.63;30.01;98813.50;5072133;28;20052;-60
2023/07/27 10:31:25;;;;;;;7.82;4.40;;;;;;;30.77;29.46;98808.19;5070803;28;20037;-62
2023/07/27 10:33:50;;;;;;;7.38;4.35;;;;;;;30.36;29.89;98791.75;5071877;28;20533;-62
2023/07/27 10:36:16;;;;;;;8.32;5.38;;;;;;;30.01;30.73;98779.66;5071622;28;20079;-60
2023/07/27 10:38:53;;;;;;;6.63;4.85;;;;;;;29.95;31.44;98765.03;5071969;28;20075;-60
2023/07/27 10:41:25;;;;;;;7.15;4.88;;;;;;;30.14;31.19;98770.81;5071928;28;20441;-62
2023/07/27 10:44:08;;;;;;;7.45;4.97;;;;;;;30.26;31.19;98761.41;5072067;28;20029;-60
2023/07/27 10:46:35;;;;;;;7.85;5.50;;;;;;;30.16;31.85;98771.38;5071495;28;20119;-60
2023/07/27 10:49:12;;;;;;;9.75;5.60;;;;;;;30.44;32.30;98773.78;5071310;28;20111;-60
2023/07/27 10:51:38;;;;;;;9.13;5.85;;;;;;;30.33;32.48;98753.66;5071605;28;20021;-60
2023/07/27 10:54:04;;;;;;;8.90;6.32;;;;;;;30.33;32.44;98761.94;5071726;28;20036;-61
2023/07/27 10:56:32;;;;;;;7.93;6.40;;;;;;;30.07;33.12;98776.66;5071864;28;20025;-60
2023/07/27 10:59:01;;;;;;;6.43;5.78;;;;;;;29.84;33.57;98786.28;5071237;28;20467;-60
2023/07/27 11:01:33;;;;;;;9.68;6.22;;;;;;;29.87;33.43;98793.19;5072128;28;20119;-62
2023/07/27 11:03:59;;;;;;;10.63;6.40;;;;;;;29.65;33.57;98789.59;5071376;28;20103;-60
2023/07/27 11:06:28;;;;;;;7.53;5.88;;;;;;;29.33;34.29;98763.09;5070982;28;20029;-61
2023/07/27 11:08:56;;;;;;;8.77;5.95;;;;;;;29.37;34.20;98789.00;5071625;28;20036;-61
2023/07/27 11:11:26;;;;;;;9.70;6.07;;;;;;;29.18;34.56;98813.53;5072003;28;20033;-61
2023/07/27 11:13:52;;;;;;;8.20;6.18;;;;;;;29.14;34.76;98808.81;5071681;28;20041;-62
2023/07/27 11:16:18;;;;;;;11.27;6.30;;;;;;;29.07;34.86;98804.41;5071309;28;20031;-59
2023/07/27 11:18:44;;;;;;;9.70;6.38;;;;;;;28.99;34.80;98820.63;5070749;28;20203;-62
2023/07/27 11:21:11;;;;;;;13.63;6.25;;;;;;;28.77;35.20;98816.94;5071108;28;20043;-61
2023/07/27 11:23:46;;;;;;;25.77;7.15;;;;;;;28.64;34.86;98781.63;5073172;28;20034;-61
2023/07/27 11:26:12;;;;;;;20.98;6.30;;;;;;;28.86;35.21;98817.28;5075722;28;20040;-61